Time;durP1;ratioP1;P1;durP2;ratioP2;P2;SDS_P1;SDS_P2;PMS_P1;PMS_P2;Temp;Humidity;BMP_temperature;BMP_pressure;BME280_temperature;BME280_humidity;BME280_pressure;Samples;Min_cycle;Max_cycle;Signal;HPM_P1;HPM_P2
2024/01/31 00:01:09;;;;;;;2.97;1.33;;;4.80;99.90;;;;;;5094696;28;20024;-77
2024/01/31 00:03:35;;;;;;;2.97;1.02;;;4.80;99.90;;;;;;5094779;28;20051;-76
2024/01/31 00:06:02;;;;;;;4.82;1.35;;;4.80;99.90;;;;;;5094162;28;20032;-77
2024/01/31 00:08:30;;;;;;;2.92;1.13;;;4.80;99.90;;;;;;5094575;28;20099;-77
2024/01/31 00:10:56;;;;;;;3.60;1.23;;;4.90;99.90;;;;;;5093834;28;20031;-77
2024/01/31 00:13:22;;;;;;;4.22;1.10;;;4.90;99.90;;;;;;5094309;28;20025;-78
2024/01/31 00:15:47;;;;;;;2.53;1.08;;;4.90;99.90;;;;;;5093974;28;20028;-78
2024/01/31 00:18:13;;;;;;;4.90;1.35;;;5.00;99.90;;;;;;5094459;28;20039;-77
2024/01/31 00:20:39;;;;;;;2.50;0.80;;;5.00;99.90;;;;;;5094042;28;20034;-79
2024/01/31 00:23:06;;;;;;;3.70;1.25;;;5.00;99.90;;;;;;5092296;28;20085;-78
2024/01/31 00:25:31;;;;;;;5.00;1.10;;;5.00;99.90;;;;;;5094156;28;20035;-77
2024/01/31 00:27:58;;;;;;;4.88;1.35;;;5.00;99.90;;;;;;5093613;28;20032;-78
2024/01/31 00:30:24;;;;;;;3.72;1.45;;;5.10;99.90;;;;;;5093952;28;20035;-77
2024/01/31 00:32:49;;;;;;;1.95;0.98;;;5.10;99.90;;;;;;5093450;28;20381;-77
2024/01/31 00:35:15;;;;;;;1.73;0.88;;;5.10;99.90;;;;;;5094194;28;20104;-77
2024/01/31 00:37:41;;;;;;;2.38;0.90;;;5.10;99.90;;;;;;5093459;28;20035;-78
2024/01/31 00:40:09;;;;;;;3.13;1.20;;;5.10;99.90;;;;;;5094180;28;20465;-77
2024/01/31 00:42:38;;;;;;;6.68;1.13;;;5.10;99.90;;;;;;5094007;28;20100;-77
2024/01/31 00:45:05;;;;;;;4.38;1.00;;;5.10;99.90;;;;;;5093402;28;20386;-77
2024/01/31 00:47:31;;;;;;;6.50;1.30;;;5.20;99.90;;;;;;5093593;28;20102;-77
2024/01/31 00:49:57;;;;;;;5.00;1.20;;;5.10;99.90;;;;;;5093223;28;20025;-78
2024/01/31 00:52:22;;;;;;;5.38;1.30;;;5.10;99.90;;;;;;5093785;28;20072;-77
2024/01/31 00:54:48;;;;;;;4.57;1.63;;;5.10;99.90;;;;;;5093156;28;20444;-77
2024/01/31 00:57:14;;;;;;;4.28;1.20;;;5.10;99.90;;;;;;5093712;28;20038;-77
2024/01/31 00:59:42;;;;;;;3.53;1.00;;;5.10;99.90;;;;;;5093517;28;20107;-79
2024/01/31 01:02:08;;;;;;;6.13;1.05;;;5.00;99.90;;;;;;5093670;28;20035;-77
2024/01/31 01:04:34;;;;;;;6.97;1.80;;;5.00;99.90;;;;;;5093330;28;20024;-77
2024/01/31 01:07:00;;;;;;;4.35;0.93;;;4.90;99.90;;;;;;5092645;28;20583;-78
2024/01/31 01:09:26;;;;;;;8.65;1.50;;;4.90;99.90;;;;;;5093557;28;20066;-77
2024/01/31 01:11:51;;;;;;;4.22;1.20;;;5.00;99.90;;;;;;5091537;28;20473;-77
2024/01/31 01:14:17;;;;;;;5.90;1.52;;;4.90;99.90;;;;;;5093238;28;20495;-77
2024/01/31 01:16:43;;;;;;;4.38;1.30;;;4.90;99.90;;;;;;5091351;28;20032;-78
2024/01/31 01:19:09;;;;;;;3.38;1.27;;;5.00;99.90;;;;;;5093515;28;20316;-78
2024/01/31 01:21:36;;;;;;;8.32;1.08;;;5.00;99.90;;;;;;5093583;28;20423;-78
2024/01/31 01:24:02;;;;;;;4.10;1.00;;;5.00;99.90;;;;;;5092878;28;20038;-77
2024/01/31 01:26:28;;;;;;;7.60;1.77;;;5.00;99.90;;;;;;5093032;28;20377;-77
2024/01/31 01:28:53;;;;;;;6.30;1.13;;;5.00;99.90;;;;;;5092679;28;20030;-77
2024/01/31 01:31:19;;;;;;;3.97;1.23;;;5.00;99.90;;;;;;5093382;28;20152;-77
2024/01/31 01:33:45;;;;;;;2.85;0.90;;;5.10;99.90;;;;;;5092285;28;20446;-77
2024/01/31 01:36:11;;;;;;;3.72;1.05;;;5.10;99.90;;;;;;5091734;28;20363;-77
2024/01/31 01:38:37;;;;;;;4.60;1.35;;;5.10;99.90;;;;;;5092980;28;20035;-77
2024/01/31 01:41:04;;;;;;;5.80;1.17;;;5.10;99.90;;;;;;5092286;28;20154;-77
2024/01/31 01:43:30;;;;;;;3.45;1.00;;;5.20;99.90;;;;;;5092677;28;20024;-78
2024/01/31 01:46:05;;;;;;;6.25;1.02;;;5.20;99.90;;;;;;5091882;28;20073;-77
2024/01/31 01:48:31;;;;;;;4.25;1.30;;;5.30;99.90;;;;;;5092430;28;20402;-77
2024/01/31 01:50:57;;;;;;;3.22;1.23;;;5.30;99.90;;;;;;5090710;28;20039;-77
2024/01/31 01:53:22;;;;;;;3.80;1.02;;;5.30;99.90;;;;;;5092299;28;20039;-77
2024/01/31 01:55:48;;;;;;;3.08;0.88;;;5.40;99.90;;;;;;5092371;28;20028;-78
2024/01/31 01:58:14;;;;;;;3.03;0.98;;;5.50;99.90;;;;;;5092768;28;20028;-77
2024/01/31 02:00:42;;;;;;;3.72;1.17;;;5.50;99.90;;;;;;5092366;28;20028;-79
2024/01/31 02:03:08;;;;;;;5.75;1.35;;;5.60;99.90;;;;;;5092621;28;20531;-76
2024/01/31 02:05:34;;;;;;;3.50;0.77;;;5.60;99.90;;;;;;5093097;28;20027;-76
2024/01/31 02:08:00;;;;;;;3.63;0.90;;;5.60;99.90;;;;;;5092320;28;20326;-76
2024/01/31 02:10:25;;;;;;;2.70;0.98;;;5.60;99.90;;;;;;5092827;28;20484;-76
2024/01/31 02:12:51;;;;;;;6.00;1.15;;;5.70;99.90;;;;;;5092353;28;20048;-76
2024/01/31 02:15:17;;;;;;;5.97;1.08;;;5.70;99.90;;;;;;5092753;28;20052;-76
2024/01/31 02:17:43;;;;;;;3.17;0.90;;;5.70;99.90;;;;;;5092192;28;20030;-78
2024/01/31 02:20:15;;;;;;;3.58;1.33;;;5.70;99.90;;;;;;5093193;28;20035;-76
2024/01/31 02:22:43;;;;;;;4.20;1.10;;;5.80;99.90;;;;;;5092895;28;20020;-76
2024/01/31 02:25:13;;;;;;;1.98;0.60;;;5.80;99.90;;;;;;5092828;28;20036;-76
2024/01/31 02:27:40;;;;;;;2.80;0.93;;;5.80;99.90;;;;;;5092493;28;20063;-76
2024/01/31 02:30:07;;;;;;;4.10;1.10;;;5.80;99.90;;;;;;5091746;28;20032;-77
2024/01/31 02:32:33;;;;;;;7.70;1.25;;;5.90;99.90;;;;;;5092591;28;20035;-76
2024/01/31 02:34:59;;;;;;;5.40;1.33;;;5.90;99.90;;;;;;5091740;28;20032;-77
2024/01/31 02:37:24;;;;;;;6.30;1.02;;;6.00;99.90;;;;;;5093013;28;20028;-76
2024/01/31 02:39:50;;;;;;;3.70;0.98;;;6.00;99.90;;;;;;5090784;28;20035;-77
2024/01/31 02:42:16;;;;;;;4.75;1.02;;;6.00;99.90;;;;;;5091407;28;20066;-76
2024/01/31 02:44:41;;;;;;;3.20;1.10;;;6.00;99.90;;;;;;5092576;28;20027;-76
2024/01/31 02:47:07;;;;;;;4.18;1.17;;;6.00;99.90;;;;;;5091682;28;20153;-76
2024/01/31 02:49:33;;;;;;;7.18;1.10;;;6.00;99.90;;;;;;5092624;28;20051;-76
2024/01/31 02:51:59;;;;;;;6.68;1.00;;;6.00;99.90;;;;;;5091702;28;20051;-76
2024/01/31 02:54:24;;;;;;;5.70;1.05;;;6.00;99.90;;;;;;5091440;28;20020;-76
2024/01/31 02:56:50;;;;;;;3.70;1.10;;;6.00;99.90;;;;;;5091729;28;20354;-76
2024/01/31 02:59:16;;;;;;;7.00;1.20;;;6.00;99.90;;;;;;5094537;28;20069;-76
2024/01/31 03:01:49;;;;;;;4.85;1.23;;;6.10;99.90;;;;;;5096521;28;20039;-76
2024/01/31 03:04:15;;;;;;;8.80;1.77;;;6.00;99.90;;;;;;5096329;28;20036;-76
2024/01/31 03:06:40;;;;;;;8.27;1.42;;;6.10;99.90;;;;;;5096650;28;20039;-76
2024/01/31 03:09:06;;;;;;;5.10;1.00;;;6.10;99.90;;;;;;5095539;28;20081;-75
2024/01/31 03:11:32;;;;;;;2.60;1.08;;;6.10;99.90;;;;;;5096316;28;20036;-76
2024/01/31 03:13:58;;;;;;;6.47;1.00;;;6.10;99.90;;;;;;5095756;28;20024;-76
2024/01/31 03:16:24;;;;;;;2.13;0.75;;;6.10;99.90;;;;;;5095844;28;20021;-76
2024/01/31 03:18:50;;;;;;;5.35;1.20;;;6.10;99.90;;;;;;5095569;28;20035;-76
2024/01/31 03:21:16;;;;;;;6.07;1.15;;;6.10;99.90;;;;;;5094862;28;20462;-76
2024/01/31 03:23:41;;;;;;;6.63;1.20;;;6.10;99.90;;;;;;5096320;28;20027;-75
2024/01/31 03:26:07;;;;;;;3.53;1.00;;;6.20;99.90;;;;;;5095549;28;20028;-75
2024/01/31 03:28:33;;;;;;;6.60;1.00;;;6.20;99.90;;;;;;5095501;28;20386;-76
2024/01/31 03:30:58;;;;;;;4.22;0.90;;;6.20;99.90;;;;;;5094096;28;20059;-75
2024/01/31 03:33:24;;;;;;;2.40;0.85;;;6.30;99.90;;;;;;5095600;28;20039;-75
2024/01/31 03:35:50;;;;;;;4.10;1.00;;;6.20;99.90;;;;;;5095047;28;20521;-76
2024/01/31 03:38:15;;;;;;;1.27;0.85;;;6.20;99.90;;;;;;5095715;28;20032;-75
2024/01/31 03:40:41;;;;;;;6.53;1.10;;;6.30;99.90;;;;;;5094487;28;20028;-75
2024/01/31 03:43:07;;;;;;;3.05;1.00;;;6.30;99.90;;;;;;5094898;28;20606;-75
2024/01/31 03:45:32;;;;;;;4.00;1.00;;;6.30;99.90;;;;;;5095649;28;20070;-75
2024/01/31 03:47:58;;;;;;;4.00;1.40;;;6.30;99.90;;;;;;5093275;28;20068;-75
2024/01/31 03:50:24;;;;;;;5.07;1.13;;;6.30;99.90;;;;;;5095590;28;20028;-75
2024/01/31 03:52:49;;;;;;;3.92;1.00;;;6.30;99.90;;;;;;5095074;28;20518;-77
2024/01/31 03:55:15;;;;;;;4.90;0.90;;;6.40;99.90;;;;;;5095453;28;20054;-75
2024/01/31 03:57:41;;;;;;;2.72;0.88;;;6.40;99.90;;;;;;5095217;28;20028;-75
2024/01/31 04:00:09;;;;;;;4.47;0.93;;;6.30;99.90;;;;;;5094651;28;20028;-75
2024/01/31 04:02:35;;;;;;;5.20;1.45;;;6.40;99.90;;;;;;5095597;28;20441;-75
2024/01/31 04:05:01;;;;;;;4.13;1.00;;;6.40;99.90;;;;;;5094680;28;20020;-75
2024/01/31 04:07:28;;;;;;;4.68;0.90;;;6.50;99.90;;;;;;5094984;28;20112;-75
2024/01/31 04:09:54;;;;;;;3.00;1.02;;;6.50;99.90;;;;;;5094099;28;20082;-76
2024/01/31 04:12:20;;;;;;;5.57;1.27;;;6.50;99.90;;;;;;5095618;28;20481;-75
2024/01/31 04:14:46;;;;;;;3.20;0.82;;;6.50;99.90;;;;;;5094867;28;20373;-75
2024/01/31 04:17:11;;;;;;;6.35;0.85;;;6.50;99.90;;;;;;5094333;28;20043;-75
2024/01/31 04:19:37;;;;;;;5.65;1.00;;;6.50;99.90;;;;;;5095038;28;20056;-75
2024/01/31 04:22:03;;;;;;;5.25;1.10;;;6.50;99.90;;;;;;5094451;28;20024;-75
2024/01/31 04:24:28;;;;;;;7.18;1.15;;;6.50;99.90;;;;;;5094765;28;20055;-75
2024/01/31 04:26:54;;;;;;;4.63;1.35;;;6.50;99.90;;;;;;5093023;28;20031;-75
2024/01/31 04:29:20;;;;;;;3.75;0.90;;;6.50;99.90;;;;;;5094513;28;20111;-75
2024/01/31 04:31:53;;;;;;;4.25;1.33;;;6.50;99.90;;;;;;5094442;28;20020;-75
2024/01/31 04:34:20;;;;;;;5.43;1.27;;;6.50;99.90;;;;;;5094981;28;20024;-75
2024/01/31 04:36:46;;;;;;;9.80;1.58;;;6.50;99.90;;;;;;5094467;28;20032;-75
2024/01/31 04:39:11;;;;;;;2.35;0.88;;;6.50;99.90;;;;;;5093779;28;20747;-75
2024/01/31 04:41:37;;;;;;;4.97;0.95;;;6.60;99.90;;;;;;5094545;28;20023;-75
2024/01/31 04:44:03;;;;;;;4.93;1.02;;;6.50;99.90;;;;;;5093969;28;20023;-75
2024/01/31 04:46:28;;;;;;;3.92;0.88;;;6.50;99.90;;;;;;5094464;28;20104;-75
2024/01/31 04:48:54;;;;;;;2.20;0.80;;;6.50;99.90;;;;;;5092336;28;20492;-76
2024/01/31 04:51:20;;;;;;;5.10;0.88;;;6.60;99.90;;;;;;5094322;28;20024;-75
2024/01/31 04:53:45;;;;;;;5.40;1.33;;;6.50;99.90;;;;;;5094406;28;20046;-75
2024/01/31 04:56:11;;;;;;;4.90;0.95;;;6.60;99.90;;;;;;5093702;28;20312;-75
2024/01/31 04:58:37;;;;;;;2.95;0.68;;;6.60;99.90;;;;;;5094445;28;20035;-75
2024/01/31 05:01:05;;;;;;;3.90;1.00;;;6.70;99.90;;;;;;5093213;28;20477;-75
2024/01/31 05:03:30;;;;;;;4.63;0.90;;;6.70;99.90;;;;;;5093961;28;20128;-74
2024/01/31 05:05:56;;;;;;;4.10;0.70;;;6.70;99.90;;;;;;5093518;28;20041;-76
2024/01/31 05:08:22;;;;;;;4.10;1.15;;;6.70;99.90;;;;;;5094810;28;20032;-75
2024/01/31 05:10:48;;;;;;;7.60;0.90;;;6.70;99.90;;;;;;5093991;28;20020;-75
2024/01/31 05:13:13;;;;;;;3.53;0.90;;;6.70;99.90;;;;;;5093505;28;20028;-75
2024/01/31 05:15:40;;;;;;;4.28;1.10;;;6.70;99.90;;;;;;5093933;28;20382;-75
2024/01/31 05:18:05;;;;;;;7.05;0.90;;;6.70;99.90;;;;;;5093298;28;20024;-75
2024/01/31 05:20:31;;;;;;;2.72;0.73;;;6.70;99.90;;;;;;5093363;28;20155;-75
2024/01/31 05:22:57;;;;;;;5.65;0.85;;;6.70;99.90;;;;;;5091489;28;20020;-75
2024/01/31 05:25:22;;;;;;;4.93;0.82;;;6.70;99.90;;;;;;5093832;28;20026;-75
2024/01/31 05:27:49;;;;;;;2.22;0.50;;;6.70;99.90;;;;;;5093355;28;20040;-75
2024/01/31 05:30:15;;;;;;;4.72;0.73;;;6.80;99.90;;;;;;5093074;28;20027;-75
2024/01/31 05:32:40;;;;;;;4.47;1.08;;;6.80;99.90;;;;;;5092050;28;20024;-75
2024/01/31 05:35:07;;;;;;;5.97;1.17;;;6.80;99.90;;;;;;5093257;28;20033;-75
2024/01/31 05:37:33;;;;;;;6.20;1.05;;;6.80;99.90;;;;;;5093401;28;20059;-75
2024/01/31 05:39:59;;;;;;;10.35;1.17;;;6.80;99.90;;;;;;5092902;28;20035;-75
2024/01/31 05:42:24;;;;;;;1.90;0.90;;;6.80;99.90;;;;;;5093121;28;20093;-75
2024/01/31 05:44:53;;;;;;;3.33;0.90;;;6.70;99.90;;;;;;5093494;28;20374;-75
2024/01/31 05:47:21;;;;;;;6.30;1.20;;;6.80;99.90;;;;;;5091009;28;20109;-75
2024/01/31 05:49:47;;;;;;;7.38;0.82;;;6.80;99.90;;;;;;5093013;28;20085;-75
2024/01/31 05:52:13;;;;;;;4.97;0.80;;;6.80;99.90;;;;;;5092296;28;20031;-75
2024/01/31 05:54:39;;;;;;;2.92;1.08;;;6.80;99.90;;;;;;5093417;28;20032;-75
2024/01/31 05:57:05;;;;;;;5.45;1.08;;;6.80;99.90;;;;;;5092257;28;20028;-75
2024/01/31 05:59:31;;;;;;;7.00;1.30;;;6.80;99.90;;;;;;5093067;28;20103;-75
2024/01/31 06:01:57;;;;;;;7.07;1.20;;;6.80;99.90;;;;;;5092911;28;20100;-77
2024/01/31 06:04:23;;;;;;;5.93;1.23;;;6.80;99.90;;;;;;5093463;28;20032;-75
2024/01/31 06:06:49;;;;;;;5.43;1.17;;;6.90;99.90;;;;;;5092918;28;20028;-75
2024/01/31 06:09:14;;;;;;;5.47;1.35;;;6.90;99.90;;;;;;5092558;28;20032;-75
2024/01/31 06:11:40;;;;;;;4.65;0.90;;;6.90;99.90;;;;;;5093155;28;20024;-75
2024/01/31 06:14:06;;;;;;;4.53;1.20;;;6.90;99.90;;;;;;5092279;28;20042;-75
2024/01/31 06:16:33;;;;;;;4.15;1.13;;;6.90;99.90;;;;;;5092847;28;20073;-75
2024/01/31 06:19:01;;;;;;;5.00;1.02;;;6.90;99.90;;;;;;5090846;28;20060;-77
2024/01/31 06:21:27;;;;;;;6.65;0.90;;;7.00;99.90;;;;;;5092717;28;20469;-76
2024/01/31 06:23:52;;;;;;;3.50;1.20;;;7.00;99.90;;;;;;5092740;28;20052;-76
2024/01/31 06:26:18;;;;;;;4.65;1.05;;;7.00;99.90;;;;;;5092093;28;20138;-76
2024/01/31 06:28:44;;;;;;;4.68;0.80;;;7.00;99.90;;;;;;5092708;28;20068;-75
2024/01/31 06:31:24;;;;;;;6.85;1.10;;;7.00;99.90;;;;;;5091647;28;20035;-76
2024/01/31 06:33:50;;;;;;;4.00;0.80;;;7.10;99.90;;;;;;5092523;28;20035;-75
2024/01/31 06:36:18;;;;;;;3.53;0.90;;;7.10;99.90;;;;;;5091718;28;20024;-76
2024/01/31 06:38:44;;;;;;;7.40;1.10;;;7.10;99.90;;;;;;5092228;28;20537;-77
2024/01/31 06:41:15;;;;;;;4.53;1.10;;;7.20;99.90;;;;;;5091570;28;20032;-76
2024/01/31 06:43:41;;;;;;;9.38;1.20;;;7.20;99.90;;;;;;5091229;28;20028;-76
2024/01/31 06:46:07;;;;;;;5.32;0.95;;;7.20;99.90;;;;;;5090680;28;20031;-74
2024/01/31 06:48:33;;;;;;;6.88;1.15;;;7.10;99.90;;;;;;5092374;28;20052;-76
2024/01/31 06:50:59;;;;;;;10.48;1.70;;;7.20;99.90;;;;;;5092011;28;20047;-76
2024/01/31 06:53:25;;;;;;;6.25;1.10;;;7.30;99.90;;;;;;5090836;28;20024;-76
2024/01/31 06:55:51;;;;;;;4.95;0.95;;;7.30;99.90;;;;;;5092159;28;20028;-76
2024/01/31 06:58:16;;;;;;;5.63;1.13;;;7.30;99.90;;;;;;5091778;28;20110;-76
2024/01/31 07:00:42;;;;;;;5.35;1.05;;;7.30;99.90;;;;;;5092459;28;20024;-75
2024/01/31 07:03:08;;;;;;;8.27;1.30;;;7.30;99.90;;;;;;5090396;28;20028;-76
2024/01/31 07:05:34;;;;;;;5.50;0.95;;;7.40;99.90;;;;;;5092077;28;20032;-75
2024/01/31 07:08:00;;;;;;;4.15;1.05;;;7.40;99.90;;;;;;5091701;28;20051;-76
2024/01/31 07:10:26;;;;;;;6.07;1.00;;;7.40;99.90;;;;;;5092145;28;20028;-76
2024/01/31 07:12:53;;;;;;;5.65;0.85;;;7.40;99.90;;;;;;5092197;28;20031;-76
2024/01/31 07:15:20;;;;;;;3.35;1.02;;;7.50;99.90;;;;;;5091397;28;20421;-78
2024/01/31 07:17:46;;;;;;;8.20;1.10;;;7.40;99.90;;;;;;5092177;28;20032;-76
2024/01/31 07:20:12;;;;;;;8.23;1.15;;;7.50;99.90;;;;;;5090255;28;20024;-75
2024/01/31 07:22:38;;;;;;;7.05;0.98;;;7.40;99.90;;;;;;5092117;28;20539;-75
2024/01/31 07:25:04;;;;;;;5.50;1.00;;;7.50;99.90;;;;;;5091738;28;20077;-77
2024/01/31 07:27:30;;;;;;;3.55;0.70;;;7.50;99.90;;;;;;5092005;28;20111;-77
2024/01/31 07:29:55;;;;;;;2.13;0.52;;;7.60;99.90;;;;;;5091918;28;20103;-75
2024/01/31 07:32:21;;;;;;;7.63;1.20;;;7.60;99.90;;;;;;5089944;28;20597;-77
2024/01/31 07:34:47;;;;;;;6.13;1.10;;;7.50;99.90;;;;;;5091740;28;20033;-75
2024/01/31 07:37:13;;;;;;;6.75;1.15;;;7.60;99.90;;;;;;5091352;28;20024;-75
2024/01/31 07:39:38;;;;;;;5.93;1.10;;;7.50;99.90;;;;;;5090666;28;20024;-76
2024/01/31 07:42:04;;;;;;;3.40;1.20;;;7.50;99.90;;;;;;5091567;28;20028;-76
2024/01/31 07:44:30;;;;;;;3.95;1.40;;;7.40;99.90;;;;;;5093197;28;20074;-76
2024/01/31 07:46:57;;;;;;;5.93;1.40;;;7.40;99.90;;;;;;5095365;28;20032;-76
2024/01/31 07:49:23;;;;;;;5.85;1.30;;;7.40;99.90;;;;;;5094952;28;20024;-77
2024/01/31 07:51:52;;;;;;;4.45;1.10;;;7.40;99.90;;;;;;5095194;28;20032;-76
2024/01/31 07:54:18;;;;;;;3.65;1.13;;;7.40;99.90;;;;;;5094863;28;20030;-76
2024/01/31 07:56:44;;;;;;;6.28;1.27;;;7.40;99.90;;;;;;5095538;28;20028;-76
2024/01/31 07:59:10;;;;;;;7.72;0.98;;;7.40;99.90;;;;;;5094421;28;20378;-76
2024/01/31 08:01:35;;;;;;;4.97;1.10;;;7.40;99.90;;;;;;5095642;28;20106;-76
2024/01/31 08:04:01;;;;;;;3.28;1.05;;;7.40;99.90;;;;;;5094948;28;20377;-76
2024/01/31 08:06:27;;;;;;;4.03;0.95;;;7.40;99.90;;;;;;5094429;28;20030;-76
2024/01/31 08:08:53;;;;;;;6.13;1.13;;;7.40;99.90;;;;;;5093732;28;20032;-76
2024/01/31 08:11:18;;;;;;;5.53;1.55;;;7.40;99.90;;;;;;5094344;28;20120;-76
2024/01/31 08:13:44;;;;;;;8.65;1.23;;;7.40;99.90;;;;;;5094421;28;20035;-76
2024/01/31 08:16:14;;;;;;;7.28;1.23;;;7.40;99.90;;;;;;5094295;28;20442;-78
2024/01/31 08:18:40;;;;;;;6.30;1.20;;;7.40;99.90;;;;;;5095187;28;20032;-77
2024/01/31 08:21:06;;;;;;;6.32;1.00;;;7.40;99.90;;;;;;5094267;28;20432;-78
2024/01/31 08:23:32;;;;;;;7.03;1.02;;;7.40;99.90;;;;;;5094670;28;20028;-77
2024/01/31 08:25:58;;;;;;;6.15;1.30;;;7.50;99.90;;;;;;5093479;28;20027;-77
2024/01/31 08:28:23;;;;;;;7.65;1.55;;;7.50;99.90;;;;;;5093827;28;20028;-75
2024/01/31 08:30:49;;;;;;;10.43;1.80;;;7.60;99.90;;;;;;5094776;28;20024;-75
2024/01/31 08:33:15;;;;;;;7.18;1.58;;;7.60;99.90;;;;;;5093727;28;20169;-76
2024/01/31 08:35:40;;;;;;;9.48;1.30;;;7.60;99.90;;;;;;5094792;28;20028;-76
2024/01/31 08:38:06;;;;;;;5.95;1.20;;;7.70;99.90;;;;;;5094183;28;20031;-79
2024/01/31 08:40:32;;;;;;;10.93;2.10;;;7.70;99.90;;;;;;5093871;28;20034;-75
2024/01/31 08:42:58;;;;;;;10.82;1.60;;;7.70;99.90;;;;;;5094445;28;20378;-77
2024/01/31 08:45:25;;;;;;;11.73;2.25;;;7.70;99.90;;;;;;5093636;28;20377;-77
2024/01/31 08:47:51;;;;;;;8.35;1.00;;;7.70;99.90;;;;;;5094004;28;20056;-75
2024/01/31 08:50:16;;;;;;;7.90;1.50;;;7.80;99.90;;;;;;5093603;28;20370;-75
2024/01/31 08:52:42;;;;;;;10.45;1.42;;;7.80;99.90;;;;;;5094010;28;20025;-77
2024/01/31 08:55:08;;;;;;;9.20;1.58;;;7.80;99.90;;;;;;5094057;28;20085;-77
2024/01/31 08:57:34;;;;;;;3.70;1.23;;;7.80;99.90;;;;;;5094322;28;20536;-76
2024/01/31 09:00:00;;;;;;;4.18;1.25;;;7.80;99.90;;;;;;5092797;28;20024;-77
2024/01/31 09:02:27;;;;;;;4.72;1.20;;;7.90;99.90;;;;;;5093576;28;20020;-78
2024/01/31 09:04:53;;;;;;;7.30;1.30;;;7.90;99.90;;;;;;5093932;28;20024;-79
2024/01/31 09:07:18;;;;;;;11.32;1.00;;;8.00;99.90;;;;;;5091847;28;20139;-75
2024/01/31 09:09:44;;;;;;;5.18;1.25;;;8.10;99.90;;;;;;5093695;28;20028;-74
2024/01/31 09:12:10;;;;;;;5.07;1.55;;;8.10;99.90;;;;;;5091593;28;20442;-78
2024/01/31 09:14:35;;;;;;;5.30;1.15;;;8.10;99.90;;;;;;5093795;28;20024;-75
2024/01/31 09:17:01;;;;;;;6.40;1.50;;;8.20;99.90;;;;;;5093931;28;20024;-76
2024/01/31 09:19:28;;;;;;;5.28;1.73;;;8.20;99.90;;;;;;5093311;28;20021;-76
2024/01/31 09:21:53;;;;;;;7.40;1.15;;;8.20;99.90;;;;;;5093600;28;20024;-76
2024/01/31 09:24:19;;;;;;;6.07;1.20;;;8.20;99.90;;;;;;5091693;28;20390;-77
2024/01/31 09:26:45;;;;;;;4.82;1.58;;;8.30;99.90;;;;;;5093542;28;20020;-77
2024/01/31 09:29:11;;;;;;;5.68;1.40;;;8.30;99.90;;;;;;5092920;28;20121;-78
2024/01/31 09:31:37;;;;;;;7.80;1.35;;;8.30;99.90;;;;;;5093485;28;20477;-76
2024/01/31 09:34:03;;;;;;;7.80;1.33;;;8.30;99.90;;;;;;5093396;28;20039;-77
2024/01/31 09:36:29;;;;;;;10.15;1.70;;;8.30;99.90;;;;;;5092943;28;20378;-76
2024/01/31 09:38:55;;;;;;;6.13;1.38;;;8.30;99.90;;;;;;5093405;28;20024;-76
2024/01/31 09:41:20;;;;;;;6.97;1.50;;;8.40;99.90;;;;;;5092550;28;20032;-77
2024/01/31 09:43:46;;;;;;;5.38;1.45;;;8.40;99.90;;;;;;5093366;28;20032;-76
2024/01/31 09:46:13;;;;;;;6.45;2.00;;;8.40;99.90;;;;;;5091540;28;20404;-77
2024/01/31 09:48:39;;;;;;;8.85;1.20;;;8.40;99.90;;;;;;5092823;28;20063;-75
2024/01/31 09:51:07;;;;;;;8.10;1.70;;;8.50;99.90;;;;;;5092761;28;20470;-75
2024/01/31 09:53:36;;;;;;;6.25;1.38;;;8.50;99.90;;;;;;5092668;28;20055;-75
2024/01/31 09:56:04;;;;;;;10.45;1.65;;;8.50;99.90;;;;;;5093117;28;20024;-77
2024/01/31 09:58:29;;;;;;;13.70;1.92;;;8.50;99.90;;;;;;5092582;28;20061;-76
2024/01/31 10:00:57;;;;;;;14.70;1.70;;;8.50;99.90;;;;;;5093033;28;20526;-76
2024/01/31 10:03:24;;;;;;;5.80;1.60;;;8.50;99.90;;;;;;5092570;28;20031;-76
2024/01/31 10:05:50;;;;;;;5.88;1.40;;;8.60;99.90;;;;;;5092824;28;20035;-76
2024/01/31 10:08:16;;;;;;;4.40;1.00;;;8.70;99.90;;;;;;5091855;28;20028;-77
2024/01/31 10:10:41;;;;;;;9.30;1.58;;;8.80;99.90;;;;;;5092893;28;20109;-77
2024/01/31 10:13:09;;;;;;;7.10;1.38;;;8.80;99.90;;;;;;5093365;28;20100;-76
2024/01/31 10:15:35;;;;;;;8.77;1.35;;;8.80;99.90;;;;;;5092152;28;20032;-77
2024/01/31 10:18:01;;;;;;;6.70;1.23;;;8.80;99.90;;;;;;5092384;28;20115;-75
2024/01/31 10:20:27;;;;;;;12.00;2.22;;;8.90;99.90;;;;;;5092111;28;20039;-77
2024/01/31 10:22:52;;;;;;;5.53;1.15;;;8.80;99.90;;;;;;5092651;28;20032;-75
2024/01/31 10:25:25;;;;;;;9.15;1.58;;;8.90;99.90;;;;;;5092143;28;20038;-76
2024/01/31 10:27:52;;;;;;;8.00;1.30;;;8.90;99.90;;;;;;5091403;28;20028;-76
2024/01/31 10:30:18;;;;;;;7.70;1.52;;;8.90;99.90;;;;;;5090543;28;20032;-78
2024/01/31 10:32:46;;;;;;;10.85;1.42;;;8.90;99.90;;;;;;5092410;28;20094;-77
2024/01/31 10:35:12;;;;;;;5.10;1.48;;;8.90;99.90;;;;;;5092388;28;20024;-77
2024/01/31 10:37:38;;;;;;;9.57;1.60;;;9.00;99.90;;;;;;5091813;28;20036;-77
2024/01/31 10:40:09;;;;;;;10.90;1.38;;;9.00;99.90;;;;;;5092514;28;20025;-76
2024/01/31 10:42:35;;;;;;;7.03;1.42;;;9.00;99.90;;;;;;5091663;28;20639;-76
2024/01/31 10:45:02;;;;;;;7.38;1.55;;;9.00;99.90;;;;;;5092476;28;20073;-78
2024/01/31 10:47:28;;;;;;;7.35;1.42;;;9.10;99.90;;;;;;5091798;28;20491;-77
2024/01/31 10:49:54;;;;;;;9.25;1.63;;;9.20;99.90;;;;;;5092853;28;20042;-77
2024/01/31 10:52:24;;;;;;;7.53;1.38;;;9.20;99.90;;;;;;5091889;28;20032;-78
2024/01/31 10:54:55;;;;;;;5.72;1.25;;;9.20;99.90;;;;;;5092751;28;20048;-77
2024/01/31 10:57:22;;;;;;;13.15;1.65;;;9.30;99.90;;;;;;5092100;28;20107;-77
2024/01/31 10:59:51;;;;;;;5.78;1.40;;;9.30;99.90;;;;;;5091241;28;20024;-78
2024/01/31 11:02:18;;;;;;;5.85;1.20;;;9.40;99.90;;;;;;5092047;28;20028;-79
2024/01/31 11:04:45;;;;;;;11.25;1.58;;;9.40;99.90;;;;;;5092290;28;20036;-77
2024/01/31 11:07:29;;;;;;;7.38;1.50;;;9.40;99.90;;;;;;5092084;28;20032;-77
2024/01/31 11:09:55;;;;;;;5.15;1.38;;;9.40;99.90;;;;;;5092523;28;20035;-77
2024/01/31 11:12:21;;;;;;;4.68;1.00;;;9.40;99.90;;;;;;5091901;28;20090;-76
2024/01/31 11:14:50;;;;;;;7.88;1.38;;;9.40;99.90;;;;;;5092110;28;20474;-77
2024/01/31 11:17:20;;;;;;;8.75;1.30;;;9.40;99.90;;;;;;5090909;28;20024;-78
2024/01/31 11:19:58;;;;;;;4.30;1.30;;;9.50;99.90;;;;;;5093724;28;20024;-77
2024/01/31 11:22:24;;;;;;;10.05;1.67;;;9.60;99.90;;;;;;5095957;28;20052;-77
2024/01/31 11:24:52;;;;;;;8.65;1.50;;;9.60;99.90;;;;;;5092579;28;20031;-78
2024/01/31 11:27:19;;;;;;;6.63;1.13;;;9.60;99.90;;;;;;5087961;28;20036;-80
2024/01/31 11:29:53;;;;;;;9.77;1.65;;;9.70;99.90;;;;;;5075624;28;20031;-77
2024/01/31 11:32:21;;;;;;;7.28;1.70;;;9.70;99.90;;;;;;5075220;28;20032;-79
2024/01/31 11:34:58;;;;;;;6.97;1.55;;;9.70;99.90;;;;;;5090364;28;20028;-76
2024/01/31 11:37:23;;;;;;;11.35;1.77;;;9.70;99.90;;;;;;5095329;28;20036;-78
2024/01/31 11:39:49;;;;;;;8.45;1.38;;;9.80;99.90;;;;;;5094346;28;20028;-78
2024/01/31 11:42:14;;;;;;;6.65;1.35;;;9.80;99.90;;;;;;5095719;28;20103;-78
2024/01/31 11:44:40;;;;;;;8.80;1.40;;;9.90;99.90;;;;;;5095050;28;20028;-77
2024/01/31 11:47:06;;;;;;;6.15;1.30;;;10.00;99.90;;;;;;5095282;28;20067;-77
2024/01/31 11:49:32;;;;;;;7.10;1.40;;;10.00;99.90;;;;;;5094677;28;20031;-77
2024/01/31 11:51:57;;;;;;;6.45;1.20;;;10.10;99.90;;;;;;5095290;28;20028;-78
2024/01/31 11:54:23;;;;;;;8.50;1.42;;;10.20;99.90;;;;;;5094354;28;20157;-79
2024/01/31 11:56:50;;;;;;;7.82;1.30;;;10.20;99.90;;;;;;5095215;28;20035;-77
2024/01/31 11:59:16;;;;;;;7.38;1.48;;;10.20;99.90;;;;;;5095383;28;20036;-78
2024/01/31 12:01:42;;;;;;;8.02;1.45;;;10.20;99.90;;;;;;5093509;28;20028;-78
2024/01/31 12:04:08;;;;;;;10.43;1.85;;;10.20;99.90;;;;;;5095328;28;20110;-76
2024/01/31 12:06:33;;;;;;;6.35;1.13;;;10.20;99.90;;;;;;5094720;28;20103;-77
2024/01/31 12:09:00;;;;;;;4.82;1.08;;;10.20;99.90;;;;;;5095015;28;20043;-76
2024/01/31 12:11:25;;;;;;;6.72;1.30;;;10.30;99.90;;;;;;5094821;28;20089;-77
2024/01/31 12:13:51;;;;;;;5.88;1.45;;;10.30;99.90;;;;;;5095445;28;20020;-77
2024/01/31 12:16:17;;;;;;;10.20;1.40;;;10.30;99.90;;;;;;5095023;28;20025;-77
2024/01/31 12:18:43;;;;;;;5.28;1.45;;;10.40;99.90;;;;;;5094330;28;20032;-79
2024/01/31 12:21:11;;;;;;;6.75;1.15;;;10.40;99.90;;;;;;5094944;28;20043;-76
2024/01/31 12:23:37;;;;;;;8.30;1.33;;;10.50;99.90;;;;;;5094298;28;20024;-76
2024/01/31 12:26:03;;;;;;;8.77;1.77;;;10.50;99.90;;;;;;5094964;28;20082;-76
2024/01/31 12:28:29;;;;;;;4.38;0.90;;;10.60;99.90;;;;;;5094039;28;20082;-77
2024/01/31 12:30:56;;;;;;;11.75;1.70;;;10.60;99.90;;;;;;5094305;28;20039;-76
2024/01/31 12:33:22;;;;;;;7.57;1.05;;;10.60;99.90;;;;;;5094727;28;20016;-78
2024/01/31 12:35:48;;;;;;;5.72;1.30;;;10.60;99.90;;;;;;5094804;28;20077;-77
2024/01/31 12:38:14;;;;;;;7.05;1.10;;;10.70;99.90;;;;;;5093751;28;20036;-76
2024/01/31 12:40:39;;;;;;;4.10;1.00;;;10.70;99.90;;;;;;5092722;28;20534;-78
2024/01/31 12:43:05;;;;;;;6.18;1.20;;;10.70;99.90;;;;;;5094461;28;20020;-78
2024/01/31 12:45:33;;;;;;;5.30;1.25;;;10.70;99.90;;;;;;5093952;28;20028;-76
2024/01/31 12:47:59;;;;;;;4.40;1.30;;;10.80;99.90;;;;;;5092756;28;20056;-77
2024/01/31 12:50:25;;;;;;;9.68;1.55;;;10.80;99.90;;;;;;5093520;28;20032;-78